Time;durP1;ratioP1;P1;durP2;ratioP2;P2;SDS_P1;SDS_P2;PMS_P1;PMS_P2;Temp;Humidity;BMP_temperature;BMP_pressure;BME280_temperature;BME280_humidity;BME280_pressure;Samples;Min_cycle;Max_cycle;Signal;HPM_P1;HPM_P2
2023/06/04 00:00:58;;;;;;;13.43;6.72;;;;;;;;;;6212462;23;20005;-80
2023/06/04 00:03:23;;;;;;;15.55;6.43;;;;;;;;;;6187061;23;20440;-81
2023/06/04 00:05:49;;;;;;;18.98;6.10;;;;;;;;;;6213214;23;20004;-80
2023/06/04 00:08:14;;;;;;;13.27;6.22;;;;;;;;;;6212355;23;20455;-80
2023/06/04 00:10:40;;;;;;;14.38;6.38;;;;;;;;;;6162747;23;20011;-81
2023/06/04 00:13:06;;;;;;;19.05;6.65;;;;;;;;;;6187456;23;20004;-80
2023/06/04 00:15:31;;;;;;;19.23;6.30;;;;;;;;;;6212464;23;20005;-80
2023/06/04 00:17:57;;;;;;;16.35;6.47;;;;;;;;;;6162418;23;20451;-80
2023/06/04 00:20:22;;;;;;;11.95;6.15;;;;;;;;;;6187212;23;20001;-81
2023/06/04 00:22:48;;;;;;;18.60;6.03;;;;;;;;;;6212308;23;20011;-81
2023/06/04 00:25:13;;;;;;;12.57;6.50;;;;;;;;;;6187193;23;20345;-81
2023/06/04 00:27:38;;;;;;;15.63;6.28;;;;;;;;;;6162671;23;20138;-81
2023/06/04 00:30:05;;;;;;;23.42;7.57;;;;;;;;;;6185190;23;20044;-81
2023/06/04 00:32:30;;;;;;;23.25;7.85;;;;;;;;;;6211705;23;20032;-82
2023/06/04 00:34:57;;;;;;;19.83;8.10;;;;;;;;;;6186749;23;20391;-82
2023/06/04 00:37:23;;;;;;;18.92;7.40;;;;;;;;;;6187380;23;20079;-82
2023/06/04 00:39:49;;;;;;;19.25;7.93;;;;;;;;;;6187119;23;20011;-82
2023/06/04 00:42:15;;;;;;;19.90;7.95;;;;;;;;;;6187245;23;20090;-80
2023/06/04 00:44:44;;;;;;;18.45;8.85;;;;;;;;;;6212964;23;20425;-82
2023/06/04 00:47:12;;;;;;;21.65;9.23;;;;;;;;;;6211977;23;20009;-81
2023/06/04 00:49:38;;;;;;;29.73;10.15;;;;;;;;;;6211912;23;20001;-82
2023/06/04 00:52:03;;;;;;;31.52;10.02;;;;;;;;;;6186811;23;20505;-80
2023/06/04 00:54:29;;;;;;;22.65;8.90;;;;;;;;;;6212229;23;20005;-82
2023/06/04 00:56:54;;;;;;;23.17;8.20;;;;;;;;;;6213270;23;20016;-81
2023/06/04 00:59:20;;;;;;;28.05;8.80;;;;;;;;;;6211595;23;20035;-82
2023/06/04 01:01:57;;;;;;;27.50;7.95;;;;;;;;;;6186990;23;20005;-81
2023/06/04 01:04:45;;;;;;;15.95;7.40;;;;;;;;;;6211995;23;20072;-81
2023/06/04 01:07:12;;;;;;;20.10;6.95;;;;;;;;;;6212285;23;20452;-81
2023/06/04 01:09:37;;;;;;;16.23;6.75;;;;;;;;;;6187464;23;20428;-80
2023/06/04 01:12:07;;;;;;;23.88;6.78;;;;;;;;;;6187222;23;20005;-82
2023/06/04 01:14:33;;;;;;;16.33;6.88;;;;;;;;;;6211555;23;20079;-81
2023/06/04 01:17:28;;;;;;;18.10;6.70;;;;;;;;;;6211967;23;20062;-81
2023/06/04 01:20:00;;;;;;;19.88;6.95;;;;;;;;;;6212548;23;20340;-80
2023/06/04 01:22:37;;;;;;;14.68;6.80;;;;;;;;;;6214037;23;19997;-81
2023/06/04 01:25:05;;;;;;;14.50;6.45;;;;;;;;;;6214299;23;20039;-81
2023/06/04 01:27:32;;;;;;;16.65;6.90;;;;;;;;;;6214156;23;20011;-81
2023/06/04 01:29:58;;;;;;;14.45;6.50;;;;;;;;;;6186630;23;20004;-81
2023/06/04 01:32:24;;;;;;;15.40;6.78;;;;;;;;;;6188718;23;20004;-82
2023/06/04 01:34:49;;;;;;;12.63;6.47;;;;;;;;;;6188579;23;20007;-80
2023/06/04 01:37:16;;;;;;;19.33;6.90;;;;;;;;;;6213893;23;20079;-79
2023/06/04 01:39:42;;;;;;;14.40;6.00;;;;;;;;;;6164424;23;20417;-82
2023/06/04 01:42:08;;;;;;;13.30;6.45;;;;;;;;;;6188991;23;20063;-81
2023/06/04 01:44:33;;;;;;;15.18;5.70;;;;;;;;;;6213631;23;20004;-83
2023/06/04 01:46:58;;;;;;;16.73;5.63;;;;;;;;;;6213428;23;20083;-82
2023/06/04 01:49:24;;;;;;;14.27;6.03;;;;;;;;;;6163649;23;20001;-81
2023/06/04 01:51:50;;;;;;;9.95;5.65;;;;;;;;;;6213729;23;20458;-81
2023/06/04 01:54:16;;;;;;;15.00;5.95;;;;;;;;;;6188342;23;20011;-82
2023/06/04 01:56:41;;;;;;;22.58;5.88;;;;;;;;;;6213361;23;20040;-80
2023/06/04 01:59:07;;;;;;;11.48;5.68;;;;;;;;;;6213088;23;20313;-80
2023/06/04 02:01:34;;;;;;;12.07;5.95;;;;;;;;;;6213514;23;20004;-82
2023/06/04 02:03:59;;;;;;;13.45;5.57;;;;;;;;;;6188831;23;20012;-81
2023/06/04 02:06:29;;;;;;;16.98;5.53;;;;;;;;;;6188358;23;20005;-81
2023/06/04 02:08:55;;;;;;;;;;;;;;;;;;6190250;23;20008;-80
2023/06/04 02:11:21;;;;;;;12.88;5.90;;;;;;;;;;6188755;23;19907;-81
2023/06/04 02:13:46;;;;;;;14.48;5.60;;;;;;;;;;6213368;23;20013;-80
2023/06/04 02:16:12;;;;;;;10.02;5.82;;;;;;;;;;6214895;23;20007;-80
2023/06/04 02:18:37;;;;;;;14.50;5.50;;;;;;;;;;6213338;23;20047;-80
2023/06/04 02:21:03;;;;;;;14.02;5.70;;;;;;;;;;6188351;23;20001;-79
2023/06/04 02:23:28;;;;;;;11.68;6.00;;;;;;;;;;6213389;23;20040;-80
2023/06/04 02:25:54;;;;;;;12.93;5.68;;;;;;;;;;6188908;23;20083;-81
2023/06/04 02:28:19;;;;;;;10.05;5.40;;;;;;;;;;6214467;23;20004;-80
2023/06/04 02:30:48;;;;;;;19.00;5.50;;;;;;;;;;6213353;23;20440;-82
2023/06/04 02:33:13;;;;;;;16.02;5.35;;;;;;;;;;6185780;23;20018;-80
2023/06/04 02:35:39;;;;;;;14.65;5.18;;;;;;;;;;6188130;23;20401;-81
2023/06/04 02:38:05;;;;;;;15.13;4.95;;;;;;;;;;6163289;23;20360;-80
2023/06/04 02:40:30;;;;;;;13.70;5.80;;;;;;;;;;6188170;23;20428;-80
2023/06/04 02:42:56;;;;;;;13.52;5.15;;;;;;;;;;6213063;23;20094;-82
2023/06/04 02:45:22;;;;;;;13.65;5.22;;;;;;;;;;6214469;23;20004;-82
2023/06/04 02:47:48;;;;;;;10.60;5.10;;;;;;;;;;6163354;23;20399;-81
2023/06/04 02:50:14;;;;;;;18.80;5.38;;;;;;;;;;6187772;23;20004;-81
2023/06/04 02:52:39;;;;;;;13.45;5.35;;;;;;;;;;6187904;23;20000;-81
2023/06/04 02:55:06;;;;;;;11.23;5.07;;;;;;;;;;6212957;23;20009;-80
2023/06/04 02:57:32;;;;;;;12.13;5.40;;;;;;;;;;6163359;23;20493;-81
2023/06/04 02:59:57;;;;;;;18.60;5.20;;;;;;;;;;6213023;23;20087;-80
2023/06/04 03:02:23;;;;;;;11.85;5.40;;;;;;;;;;6188350;23;20028;-80
2023/06/04 03:04:50;;;;;;;15.35;5.60;;;;;;;;;;6188109;23;20012;-81
2023/06/04 03:07:20;;;;;;;10.80;5.28;;;;;;;;;;6213306;23;19997;-80
2023/06/04 03:09:46;;;;;;;9.77;4.90;;;;;;;;;;6188754;23;20432;-80
2023/06/04 03:12:11;;;;;;;11.23;5.25;;;;;;;;;;6214658;23;20058;-80
2023/06/04 03:14:37;;;;;;;10.50;5.20;;;;;;;;;;6187780;23;20004;-80
2023/06/04 03:17:07;;;;;;;10.25;5.20;;;;;;;;;;6212949;23;19997;-80
2023/06/04 03:19:34;;;;;;;19.95;5.15;;;;;;;;;;6188988;23;20080;-79
2023/06/04 03:22:00;;;;;;;16.52;5.07;;;;;;;;;;6212942;23;20465;-80
2023/06/04 03:24:26;;;;;;;11.20;5.07;;;;;;;;;;6187708;23;20052;-81
2023/06/04 03:26:54;;;;;;;11.68;5.20;;;;;;;;;;6214355;23;20011;-80
2023/06/04 03:29:19;;;;;;;11.13;5.30;;;;;;;;;;6187747;23;20005;-80
2023/06/04 03:31:45;;;;;;;11.15;5.10;;;;;;;;;;6163378;23;20501;-80
2023/06/04 03:34:10;;;;;;;12.25;5.38;;;;;;;;;;6161083;23;20412;-81
2023/06/04 03:36:37;;;;;;;11.98;5.32;;;;;;;;;;6187327;23;20353;-81
2023/06/04 03:39:04;;;;;;;12.43;5.22;;;;;;;;;;6163462;23;20009;-82
2023/06/04 03:41:30;;;;;;;8.60;5.15;;;;;;;;;;6212354;23;20083;-81
2023/06/04 03:43:55;;;;;;;17.15;6.20;;;;;;;;;;6212164;23;20375;-81
2023/06/04 03:46:21;;;;;;;14.75;5.32;;;;;;;;;;6212073;23;20005;-81
2023/06/04 03:48:46;;;;;;;13.80;5.30;;;;;;;;;;6212320;23;20421;-80
2023/06/04 03:51:11;;;;;;;11.07;5.55;;;;;;;;;;6212237;23;20001;-81
2023/06/04 03:53:37;;;;;;;11.35;5.03;;;;;;;;;;6213704;23;20095;-80
2023/06/04 03:56:02;;;;;;;9.82;5.53;;;;;;;;;;6212581;23;20063;-80
2023/06/04 03:58:28;;;;;;;10.63;5.35;;;;;;;;;;6212327;23;20001;-80
2023/06/04 04:00:54;;;;;;;9.52;5.40;;;;;;;;;;6214138;23;20004;-82
2023/06/04 04:03:20;;;;;;;14.68;5.40;;;;;;;;;;6187699;23;20424;-82
2023/06/04 04:05:45;;;;;;;17.15;5.95;;;;;;;;;;6212730;23;20000;-80
2023/06/04 04:08:11;;;;;;;12.30;5.30;;;;;;;;;;6187017;23;20009;-80
2023/06/04 04:10:36;;;;;;;13.88;5.60;;;;;;;;;;6187548;23;20001;-82
2023/06/04 04:13:01;;;;;;;15.48;5.78;;;;;;;;;;6187365;23;20025;-83
2023/06/04 04:15:27;;;;;;;14.02;5.43;;;;;;;;;;6212271;23;19996;-83
2023/06/04 04:17:52;;;;;;;8.85;5.18;;;;;;;;;;6212029;23;20005;-82
2023/06/04 04:20:18;;;;;;;14.15;5.57;;;;;;;;;;6216260;23;19996;-82
2023/06/04 04:22:44;;;;;;;11.40;5.07;;;;;;;;;;6213349;23;20432;-83
2023/06/04 04:25:09;;;;;;;12.82;5.38;;;;;;;;;;6212120;23;20325;-82
2023/06/04 04:27:38;;;;;;;9.93;4.75;;;;;;;;;;6187120;23;20509;-83
2023/06/04 04:30:05;;;;;;;9.88;5.32;;;;;;;;;;6188017;23;19997;-82
2023/06/04 04:32:31;;;;;;;11.43;5.05;;;;;;;;;;6195211;23;20004;-82
2023/06/04 04:34:57;;;;;;;9.45;4.70;;;;;;;;;;6217564;23;20004;-82
2023/06/04 04:37:22;;;;;;;12.10;4.95;;;;;;;;;;6192876;23;20467;-82
2023/06/04 04:39:51;;;;;;;10.07;4.82;;;;;;;;;;6217076;23;20007;-82
2023/06/04 04:42:17;;;;;;;8.43;4.88;;;;;;;;;;6174579;23;20036;-81
2023/06/04 04:44:47;;;;;;;11.88;5.13;;;;;;;;;;6164059;23;20016;-83
2023/06/04 04:47:13;;;;;;;12.52;5.07;;;;;;;;;;6188090;23;20005;-82
2023/06/04 04:49:38;;;;;;;8.25;4.35;;;;;;;;;;6212018;23;20074;-82
2023/06/04 04:52:04;;;;;;;9.48;4.45;;;;;;;;;;6212975;23;20001;-82
2023/06/04 04:54:29;;;;;;;12.52;4.50;;;;;;;;;;6213234;23;20008;-82
2023/06/04 04:56:54;;;;;;;13.98;4.63;;;;;;;;;;6213191;23;20012;-82
2023/06/04 04:59:20;;;;;;;13.20;4.80;;;;;;;;;;6187077;23;20120;-82
2023/06/04 05:01:45;;;;;;;12.68;4.82;;;;;;;;;;6162493;23;20004;-82
2023/06/04 05:04:11;;;;;;;13.77;5.10;;;;;;;;;;6211561;23;20009;-82
2023/06/04 05:06:37;;;;;;;11.95;4.75;;;;;;;;;;6186547;23;20444;-82
2023/06/04 05:09:03;;;;;;;16.35;5.03;;;;;;;;;;6211762;23;20020;-83
2023/06/04 05:11:29;;;;;;;12.55;5.40;;;;;;;;;;6213140;23;20086;-81
2023/06/04 05:13:55;;;;;;;16.13;4.60;;;;;;;;;;6213236;23;20009;-82
2023/06/04 05:16:22;;;;;;;13.02;5.30;;;;;;;;;;6211991;23;20412;-82
2023/06/04 05:18:48;;;;;;;13.10;5.03;;;;;;;;;;6211759;23;20063;-81
2023/06/04 05:21:13;;;;;;;13.75;5.28;;;;;;;;;;6211542;23;20001;-81
2023/06/04 05:23:39;;;;;;;12.15;5.30;;;;;;;;;;6211479;23;20008;-82
2023/06/04 05:26:04;;;;;;;14.27;5.03;;;;;;;;;;6186664;23;20004;-82
2023/06/04 05:28:32;;;;;;;15.73;5.57;;;;;;;;;;6186555;23;20004;-82
2023/06/04 05:31:01;;;;;;;12.10;4.97;;;;;;;;;;6211732;23;20391;-81
2023/06/04 05:33:26;;;;;;;12.10;5.10;;;;;;;;;;6162710;23;20046;-80
2023/06/04 05:35:53;;;;;;;15.77;5.45;;;;;;;;;;6212704;23;20396;-81
2023/06/04 05:38:19;;;;;;;13.25;5.47;;;;;;;;;;6211036;23;20139;-79
2023/06/04 05:40:45;;;;;;;11.77;6.00;;;;;;;;;;6186675;23;20543;-81
2023/06/04 05:43:10;;;;;;;18.20;5.95;;;;;;;;;;6161748;23;20419;-82
2023/06/04 05:45:36;;;;;;;11.45;5.93;;;;;;;;;;6161701;23;20399;-81
2023/06/04 05:48:01;;;;;;;11.55;5.65;;;;;;;;;;6211791;23;20059;-79
2023/06/04 05:50:27;;;;;;;18.00;5.90;;;;;;;;;;6211244;23;20005;-83
2023/06/04 05:52:53;;;;;;;12.23;5.78;;;;;;;;;;6211639;23;20000;-80
2023/06/04 05:55:19;;;;;;;12.00;5.25;;;;;;;;;;6213288;23;20095;-80
2023/06/04 05:57:44;;;;;;;13.88;5.80;;;;;;;;;;6186513;23;20008;-81
2023/06/04 06:00:10;;;;;;;17.40;6.25;;;;;;;;;;6213165;23;20067;-80
2023/06/04 06:02:37;;;;;;;16.10;6.10;;;;;;;;;;6213563;23;20005;-79
2023/06/04 06:05:03;;;;;;;17.65;6.60;;;;;;;;;;6211051;23;20019;-81
2023/06/04 06:07:28;;;;;;;12.80;6.35;;;;;;;;;;6188260;23;20001;-81
2023/06/04 06:09:54;;;;;;;14.70;6.13;;;;;;;;;;6214711;23;20004;-81
2023/06/04 06:12:19;;;;;;;13.23;6.20;;;;;;;;;;6214731;23;20071;-81
2023/06/04 06:14:45;;;;;;;14.88;5.95;;;;;;;;;;6188736;23;20031;-80
2023/06/04 06:17:10;;;;;;;14.73;5.65;;;;;;;;;;6214814;23;20003;-82
2023/06/04 06:19:37;;;;;;;11.65;5.68;;;;;;;;;;6212950;23;20368;-81
2023/06/04 06:22:03;;;;;;;13.35;5.82;;;;;;;;;;6164102;23;20091;-81
2023/06/04 06:24:29;;;;;;;18.40;6.00;;;;;;;;;;6188256;23;20012;-81
2023/06/04 06:26:54;;;;;;;15.77;5.68;;;;;;;;;;6214513;23;20435;-80
2023/06/04 06:29:20;;;;;;;13.50;5.85;;;;;;;;;;6213509;23;20012;-81
2023/06/04 06:31:46;;;;;;;17.42;5.30;;;;;;;;;;6214615;23;20079;-82
2023/06/04 06:34:12;;;;;;;10.15;5.60;;;;;;;;;;6212555;23;20004;-83
2023/06/04 06:36:37;;;;;;;14.35;6.07;;;;;;;;;;6188212;23;20007;-81
2023/06/04 06:39:21;;;;;;;14.40;5.80;;;;;;;;;;6188144;23;20174;-81
2023/06/04 06:41:46;;;;;;;12.48;4.80;;;;;;;;;;6212138;23;20001;-82
2023/06/04 06:44:12;;;;;;;9.40;5.32;;;;;;;;;;6214151;23;20086;-82
2023/06/04 06:46:37;;;;;;;13.07;5.32;;;;;;;;;;6213273;23;20013;-82
2023/06/04 06:49:03;;;;;;;11.32;5.78;;;;;;;;;;6213930;23;20378;-82
2023/06/04 06:51:28;;;;;;;12.88;5.25;;;;;;;;;;6214379;23;20067;-81
2023/06/04 06:53:54;;;;;;;13.23;5.60;;;;;;;;;;6162802;23;20013;-81
2023/06/04 06:56:19;;;;;;;8.38;4.75;;;;;;;;;;6212728;23;20118;-81
2023/06/04 06:58:45;;;;;;;11.43;5.25;;;;;;;;;;6214441;23;20001;-82
2023/06/04 07:01:11;;;;;;;12.07;5.07;;;;;;;;;;6214177;23;19997;-81
2023/06/04 07:03:38;;;;;;;9.45;4.80;;;;;;;;;;6187372;23;20011;-83
2023/06/04 07:06:04;;;;;;;12.80;5.28;;;;;;;;;;6188373;23;20000;-82
2023/06/04 07:08:29;;;;;;;9.13;5.13;;;;;;;;;;6187717;23;20031;-81
2023/06/04 07:10:55;;;;;;;16.40;5.22;;;;;;;;;;6214141;23;20001;-82
2023/06/04 07:13:20;;;;;;;15.63;5.30;;;;;;;;;;6214041;23;20074;-82
2023/06/04 07:15:45;;;;;;;14.45;5.55;;;;;;;;;;6162915;23;20030;-80
2023/06/04 07:18:11;;;;;;;8.32;4.70;;;;;;;;;;6213356;23;20011;-81
2023/06/04 07:20:37;;;;;;;13.80;5.20;;;;;;;;;;6214351;23;20028;-81
2023/06/04 07:23:02;;;;;;;13.82;4.88;;;;;;;;;;6213751;23;20005;-81
2023/06/04 07:25:28;;;;;;;8.75;4.80;;;;;;;;;;6213922;23;19997;-81
2023/06/04 07:27:57;;;;;;;8.80;4.65;;;;;;;;;;6212293;23;20072;-80
2023/06/04 07:30:23;;;;;;;16.92;4.65;;;;;;;;;;6212203;23;20428;-81
2023/06/04 07:32:49;;;;;;;9.38;4.78;;;;;;;;;;6187880;23;20000;-81
2023/06/04 07:35:15;;;;;;;9.30;4.78;;;;;;;;;;6213712;23;20074;-80
2023/06/04 07:37:41;;;;;;;11.48;4.78;;;;;;;;;;6187630;23;20001;-81
2023/06/04 07:40:07;;;;;;;11.68;4.60;;;;;;;;;;6188336;23;20031;-81
2023/06/04 07:42:32;;;;;;;7.85;4.38;;;;;;;;;;6212419;23;20420;-81
2023/06/04 07:44:58;;;;;;;11.90;4.63;;;;;;;;;;6211939;23;20395;-80
2023/06/04 07:47:24;;;;;;;13.23;5.00;;;;;;;;;;6187084;23;20107;-79
2023/06/04 07:49:50;;;;;;;9.18;4.45;;;;;;;;;;6212498;23;20044;-80
2023/06/04 07:52:15;;;;;;;10.23;4.55;;;;;;;;;;6212083;23;20011;-81
2023/06/04 07:54:41;;;;;;;11.18;4.60;;;;;;;;;;6214084;23;20016;-79
2023/06/04 07:57:08;;;;;;;11.73;4.50;;;;;;;;;;6187221;23;20126;-80
2023/06/04 07:59:33;;;;;;;11.10;4.72;;;;;;;;;;6163426;23;20004;-82
2023/06/04 08:01:59;;;;;;;10.70;4.57;;;;;;;;;;6213556;23;20058;-82
2023/06/04 08:04:25;;;;;;;7.75;4.15;;;;;;;;;;6213334;23;20066;-82
2023/06/04 08:06:51;;;;;;;22.38;4.78;;;;;;;;;;6213481;23;20004;-83
2023/06/04 08:09:17;;;;;;;13.80;4.07;;;;;;;;;;6212608;23;20058;-82
2023/06/04 08:11:45;;;;;;;11.50;4.57;;;;;;;;;;6212260;23;20008;-83
2023/06/04 08:14:16;;;;;;;10.95;4.22;;;;;;;;;;6213196;23;20432;-83
2023/06/04 08:16:42;;;;;;;9.93;4.53;;;;;;;;;;6187296;23;20087;-83
2023/06/04 08:19:07;;;;;;;10.23;4.90;;;;;;;;;;6213384;23;20329;-82
2023/06/04 08:21:33;;;;;;;11.52;4.15;;;;;;;;;;6211920;23;20424;-83
2023/06/04 08:23:59;;;;;;;10.93;4.13;;;;;;;;;;6163225;23;20012;-83
2023/06/04 08:26:26;;;;;;;10.30;4.65;;;;;;;;;;6211184;23;20083;-83
2023/06/04 08:28:52;;;;;;;9.80;4.95;;;;;;;;;;6211348;23;20000;-82
2023/06/04 08:31:17;;;;;;;14.35;5.57;;;;;;;;;;6212936;23;20000;-83
2023/06/04 08:33:45;;;;;;;11.70;5.05;;;;;;;;;;6187002;23;20000;-82
2023/06/04 08:36:11;;;;;;;9.90;4.40;;;;;;;;;;6186807;23;20348;-81
2023/06/04 08:38:36;;;;;;;14.70;4.10;;;;;;;;;;6211751;23;20343;-82
2023/06/04 08:41:12;;;;;;;8.73;4.13;;;;;;;;;;6213418;23;20058;-82
2023/06/04 08:43:38;;;;;;;11.32;4.43;;;;;;;;;;6211693;23;20418;-82
2023/06/04 08:46:06;;;;;;;9.88;4.85;;;;;;;;;;6210677;23;20005;-83
2023/06/04 08:48:32;;;;;;;10.02;4.50;;;;;;;;;;6187025;23;20457;-82
2023/06/04 08:51:00;;;;;;;10.70;4.65;;;;;;;;;;6213279;23;20008;-82
2023/06/04 08:53:25;;;;;;;13.38;5.18;;;;;;;;;;6213159;23;20087;-81
2023/06/04 08:55:54;;;;;;;12.30;4.72;;;;;;;;;;6211422;23;20008;-81
2023/06/04 08:58:19;;;;;;;12.48;5.25;;;;;;;;;;6162950;23;20005;-82
2023/06/04 09:00:54;;;;;;;9.40;4.28;;;;;;;;;;6186654;23;20051;-82
2023/06/04 09:03:24;;;;;;;15.82;3.97;;;;;;;;;;6163950;23;20004;-81
2023/06/04 09:05:50;;;;;;;8.20;4.00;;;;;;;;;;6186749;23;20008;-82
2023/06/04 09:08:17;;;;;;;7.43;4.00;;;;;;;;;;6211995;23;20066;-81
2023/06/04 09:10:42;;;;;;;6.68;3.67;;;;;;;;;;6213227;23;20039;-82
2023/06/04 09:13:08;;;;;;;11.07;4.30;;;;;;;;;;6186255;23;20406;-81
2023/06/04 09:15:33;;;;;;;8.80;4.65;;;;;;;;;;6211794;23;20428;-81
2023/06/04 09:17:58;;;;;;;14.73;5.43;;;;;;;;;;6187381;23;20429;-82
2023/06/04 09:20:24;;;;;;;12.07;5.32;;;;;;;;;;6212787;23;20360;-82
2023/06/04 09:22:50;;;;;;;11.10;5.07;;;;;;;;;;6212929;23;20416;-81
2023/06/04 09:25:24;;;;;;;13.23;4.90;;;;;;;;;;6211698;23;20005;-80
2023/06/04 09:27:50;;;;;;;11.65;4.32;;;;;;;;;;6212727;23;20012;-81
2023/06/04 09:30:16;;;;;;;8.60;4.30;;;;;;;;;;6212680;23;20007;-80
2023/06/04 09:32:41;;;;;;;10.70;3.80;;;;;;;;;;6212971;23;20015;-81
2023/06/04 09:35:17;;;;;;;20.10;4.50;;;;;;;;;;6212935;23;20075;-81
2023/06/04 09:37:43;;;;;;;11.73;3.88;;;;;;;;;;6187532;23;20090;-82
2023/06/04 09:40:09;;;;;;;9.50;4.05;;;;;;;;;;6211834;23;20518;-81
2023/06/04 09:42:54;;;;;;;10.27;4.15;;;;;;;;;;6214580;23;20066;-82
2023/06/04 09:45:35;;;;;;;12.35;4.05;;;;;;;;;;6189336;23;20005;-82
2023/06/04 09:48:00;;;;;;;7.60;3.60;;;;;;;;;;6211674;23;20336;-82
2023/06/04 09:50:38;;;;;;;9.25;4.15;;;;;;;;;;6215094;23;19997;-82
2023/06/04 09:53:20;;;;;;;6.13;3.50;;;;;;;;;;6213650;23;20016;-81
2023/06/04 09:55:58;;;;;;;9.65;4.03;;;;;;;;;;6211034;23;20009;-82
2023/06/04 09:58:27;;;;;;;9.93;4.60;;;;;;;;;;6164566;23;20486;-82
2023/06/04 10:00:54;;;;;;;10.77;4.20;;;;;;;;;;6213444;23;20004;-81
2023/06/04 10:03:23;;;;;;;9.77;4.00;;;;;;;;;;6213757;23;20024;-82
2023/06/04 10:05:48;;;;;;;10.05;3.90;;;;;;;;;;6188782;23;20102;-82
2023/06/04 10:08:14;;;;;;;9.52;3.88;;;;;;;;;;6163371;23;20448;-82
2023/06/04 10:10:39;;;;;;;9.63;3.80;;;;;;;;;;6214991;23;20005;-80
2023/06/04 10:13:14;;;;;;;9.32;3.40;;;;;;;;;;6213164;23;20393;-82
2023/06/04 10:15:39;;;;;;;5.43;3.03;;;;;;;;;;6189067;23;20005;-82
2023/06/04 10:18:05;;;;;;;6.43;3.00;;;;;;;;;;6188273;23;20016;-82
2023/06/04 10:20:31;;;;;;;4.47;2.83;;;;;;;;;;6186824;23;20001;-81
2023/06/04 10:22:59;;;;;;;6.88;3.10;;;;;;;;;;6162088;23;20039;-82
2023/06/04 10:25:26;;;;;;;5.80;2.55;;;;;;;;;;6185961;23;20424;-81
2023/06/04 10:27:51;;;;;;;6.15;3.35;;;;;;;;;;6211450;23;20040;-82
2023/06/04 10:30:17;;;;;;;7.20;3.10;;;;;;;;;;6186478;23;20013;-82
2023/06/04 10:32:42;;;;;;;8.20;3.20;;;;;;;;;;6212779;23;20007;-81
2023/06/04 10:35:15;;;;;;;7.82;3.13;;;;;;;;;;6212958;23;20395;-83
2023/06/04 10:37:43;;;;;;;7.90;3.63;;;;;;;;;;6213837;23;20043;-83
2023/06/04 10:40:09;;;;;;;7.20;3.30;;;;;;;;;;6213996;23;20001;-83
2023/06/04 10:42:43;;;;;;;5.60;3.17;;;;;;;;;;6212787;23;20035;-83
2023/06/04 10:45:12;;;;;;;5.75;3.70;;;;;;;;;;6211367;23;20012;-82
2023/06/04 10:47:40;;;;;;;7.82;3.40;;;;;;;;;;6212892;23;20011;-83
2023/06/04 10:50:10;;;;;;;6.57;3.47;;;;;;;;;;6208563;23;20001;-82
2023/06/04 10:52:36;;;;;;;7.15;3.83;;;;;;;;;;6212161;23;20104;-82
2023/06/04 10:55:06;;;;;;;9.20;3.50;;;;;;;;;;6211002;23;20119;-81
2023/06/04 10:57:32;;;;;;;5.95;3.42;;;;;;;;;;6162568;23;20016;-81
2023/06/04 10:59:59;;;;;;;10.02;3.65;;;;;;;;;;6213050;23;20340;-83
2023/06/04 11:02:26;;;;;;;7.72;3.83;;;;;;;;;;6213464;23;20063;-83
2023/06/04 11:05:18;;;;;;;7.20;3.58;;;;;;;;;;6187354;23;20009;-82
2023/06/04 11:07:48;;;;;;;6.03;3.67;;;;;;;;;;6206202;23;20087;-81
2023/06/04 11:10:15;;;;;;;7.10;3.42;;;;;;;;;;6212037;23;20355;-82
2023/06/04 11:12:48;;;;;;;9.40;3.97;;;;;;;;;;6212414;23;20040;-80
2023/06/04 11:15:16;;;;;;;7.00;3.55;;;;;;;;;;6214409;23;20005;-83
2023/06/04 11:17:54;;;;;;;7.20;3.90;;;;;;;;;;6213919;23;20029;-83
2023/06/04 11:20:20;;;;;;;10.43;3.85;;;;;;;;;;6162502;23;20345;-83
2023/06/04 11:22:56;;;;;;;8.30;4.15;;;;;;;;;;6213429;23;20031;-84
2023/06/04 11:25:25;;;;;;;6.28;4.00;;;;;;;;;;6162965;23;20008;-83
2023/06/04 11:27:53;;;;;;;7.18;3.70;;;;;;;;;;6212439;23;20004;-82
2023/06/04 11:30:18;;;;;;;9.68;3.78;;;;;;;;;;6212716;23;20005;-83
2023/06/04 11:32:44;;;;;;;7.55;4.00;;;;;;;;;;6214409;23;20389;-82
2023/06/04 11:35:12;;;;;;;5.85;3.60;;;;;;;;;;6188453;23;20099;-83
2023/06/04 11:37:38;;;;;;;11.75;3.85;;;;;;;;;;6212469;23;20006;-82
2023/06/04 11:40:19;;;;;;;8.80;4.00;;;;;;;;;;6187734;23;20352;-83
2023/06/04 11:42:48;;;;;;;6.65;3.50;;;;;;;;;;6214046;23;20115;-82
2023/06/04 11:45:17;;;;;;;11.20;3.50;;;;;;;;;;6187215;23;20009;-82
2023/06/04 11:47:52;;;;;;;12.00;4.03;;;;;;;;;;6212947;23;20447;-82
2023/06/04 11:50:18;;;;;;;11.70;3.97;;;;;;;;;;6210257;23;20047;-82
2023/06/04 11:52:44;;;;;;;7.43;4.15;;;;;;;;;;6212060;23;20008;-82
2023/06/04 11:55:10;;;;;;;10.15;3.83;;;;;;;;;;6212520;23;20042;-82
2023/06/04 11:57:37;;;;;;;8.27;4.10;;;;;;;;;;6212141;23;20099;-82
2023/06/04 12:00:05;;;;;;;11.52;4.93;;;;;;;;;;6212149;23;20075;-83
2023/06/04 12:02:31;;;;;;;7.90;4.40;;;;;;;;;;6188027;23;20344;-83
2023/06/04 12:04:56;;;;;;;11.63;4.88;;;;;;;;;;6187032;23;20014;-81
2023/06/04 12:07:25;;;;;;;13.25;4.55;;;;;;;;;;6211833;23;20054;-82
2023/06/04 12:09:50;;;;;;;8.68;4.50;;;;;;;;;;6163900;23;20031;-79
2023/06/04 12:12:21;;;;;;;11.80;4.35;;;;;;;;;;6211764;23;20055;-81
2023/06/04 12:14:46;;;;;;;10.70;4.70;;;;;;;;;;6212206;23;20003;-82
2023/06/04 12:17:12;;;;;;;13.82;4.90;;;;;;;;;;6213418;23;20004;-82
2023/06/04 12:19:50;;;;;;;12.07;4.50;;;;;;;;;;6212310;23;20482;-82
2023/06/04 12:22:16;;;;;;;9.70;4.25;;;;;;;;;;6163464;23;20004;-81
2023/06/04 12:24:49;;;;;;;7.65;4.30;;;;;;;;;;6186790;23;20321;-81
2023/06/04 12:27:15;;;;;;;10.73;4.68;;;;;;;;;;6211724;23;20005;-82
2023/06/04 12:29:40;;;;;;;8.68;4.60;;;;;;;;;;6212065;23;19997;-81
2023/06/04 12:32:11;;;;;;;8.98;4.80;;;;;;;;;;6213492;23;20000;-83
2023/06/04 12:34:40;;;;;;;11.07;4.65;;;;;;;;;;6211935;23;20008;-83
2023/06/04 12:37:06;;;;;;;9.52;4.60;;;;;;;;;;6211961;23;20025;-83
2023/06/04 12:39:36;;;;;;;8.25;4.68;;;;;;;;;;6213678;23;20071;-83
2023/06/04 12:42:10;;;;;;;10.48;4.60;;;;;;;;;;6211888;23;20008;-83
2023/06/04 12:44:37;;;;;;;11.27;4.95;;;;;;;;;;6211785;23;20031;-83
2023/06/04 12:47:03;;;;;;;9.55;4.50;;;;;;;;;;6186961;23;20515;-83
2023/06/04 12:49:29;;;;;;;9.30;4.70;;;;;;;;;;6187096;23;20001;-83
2023/06/04 12:51:54;;;;;;;13.13;5.43;;;;;;;;;;6212016;23;20005;-82
2023/06/04 12:54:20;;;;;;;12.52;5.55;;;;;;;;;;6213469;23;20039;-83
2023/06/04 12:56:45;;;;;;;13.85;5.97;;;;;;;;;;6209655;23;20001;-83
2023/06/04 12:59:11;;;;;;;11.88;6.43;;;;;;;;;;6211558;23;20451;-83
2023/06/04 13:01:37;;;;;;;12.75;6.28;;;;;;;;;;6162320;23;20000;-82
2023/06/04 13:04:03;;;;;;;11.65;6.03;;;;;;;;;;6162507;23;20399;-82
2023/06/04 13:06:28;;;;;;;10.65;6.32;;;;;;;;;;6161499;23;20000;-81
2023/06/04 13:08:54;;;;;;;10.40;6.05;;;;;;;;;;6211509;23;20000;-81
2023/06/04 13:11:19;;;;;;;15.10;6.57;;;;;;;;;;6186914;23;20044;-81
2023/06/04 13:13:44;;;;;;;10.75;5.72;;;;;;;;;;6211831;23;20011;-82
2023/06/04 13:16:10;;;;;;;14.35;6.25;;;;;;;;;;6188336;23;20428;-82
2023/06/04 13:18:36;;;;;;;10.55;5.97;;;;;;;;;;6190173;23;20487;-82
2023/06/04 13:21:01;;;;;;;13.10;6.25;;;;;;;;;;6216362;23;20004;-81
2023/06/04 13:23:27;;;;;;;10.10;6.15;;;;;;;;;;6214450;23;20073;-82
2023/06/04 13:25:56;;;;;;;11.32;6.30;;;;;;;;;;6215088;23;20004;-83
2023/06/04 13:28:21;;;;;;;12.30;8.35;;;;;;;;;;6190533;23;20009;-82
2023/06/04 13:30:47;;;;;;;15.55;8.57;;;;;;;;;;6214901;23;20007;-82
2023/06/04 13:33:12;;;;;;;12.68;7.70;;;;;;;;;;6216368;23;20072;-83
2023/06/04 13:35:38;;;;;;;13.57;7.40;;;;;;;;;;6214747;23;20011;-82
2023/06/04 13:38:06;;;;;;;12.18;6.97;;;;;;;;;;6216145;23;20127;-82
2023/06/04 13:40:34;;;;;;;12.85;7.10;;;;;;;;;;6215703;23;20000;-82
2023/06/04 13:43:09;;;;;;;;;;;;;;;;;;;;;
2023/06/04 13:45:35;;;;;;;12.40;7.35;;;;;;;;;;6191690;23;20459;-82
2023/06/04 13:48:04;;;;;;;11.25;6.75;;;;;;;;;;6214645;23;20009;-81
2023/06/04 13:50:31;;;;;;;11.73;6.50;;;;;;;;;;6215521;23;20027;-82
2023/06/04 13:52:56;;;;;;;13.18;6.55;;;;;;;;;;6214718;23;20231;-82
2023/06/04 13:55:40;;;;;;;12.70;7.40;;;;;;;;;;6215181;23;20015;-83
2023/06/04 14:01:16;;;;;;;15.05;7.60;;;;;;;;;;6171554;23;20009;-84
2023/06/04 14:03:42;;;;;;;14.82;7.63;;;;;;;;;;6182977;23;20075;-82
2023/06/04 14:06:07;;;;;;;12.40;6.53;;;;;;;;;;6183495;23;20444;-82
2023/06/04 14:08:33;;;;;;;13.27;6.28;;;;;;;;;;6134275;23;20013;-80
2023/06/04 14:10:58;;;;;;;11.13;5.70;;;;;;;;;;6159050;23;20012;-83
2023/06/04 14:13:33;;;;;;;10.52;5.78;;;;;;;;;;6183238;23;20396;-83
2023/06/04 14:15:58;;;;;;;12.70;5.93;;;;;;;;;;6133095;23;20005;-83
2023/06/04 14:18:29;;;;;;;12.13;6.68;;;;;;;;;;6158197;23;20450;-85
2023/06/04 14:20:55;;;;;;;11.15;5.75;;;;;;;;;;6184941;23;20008;-84
2023/06/04 14:23:23;;;;;;;11.70;6.50;;;;;;;;;;6183850;23;20009;-84
2023/06/04 14:25:51;;;;;;;17.63;6.15;;;;;;;;;;6208123;23;20001;-83
2023/06/04 14:28:18;;;;;;;15.27;5.90;;;;;;;;;;6214956;23;20007;-83
2023/06/04 14:30:43;;;;;;;14.02;5.75;;;;;;;;;;6214758;23;20001;-83
2023/06/04 14:33:09;;;;;;;10.00;5.85;;;;;;;;;;6214465;23;20026;-83
2023/06/04 14:35:34;;;;;;;14.32;5.75;;;;;;;;;;6212971;23;20005;-83